sensor_id;sensor_type;location;lat;lon;timestamp;temperature;humidity
15844;DHT22;50807;52.436;13.346;2023-02-03T00:00:13;7.40;84.20
15844;DHT22;50807;52.436;13.346;2023-02-03T00:00:44;7.40;84.20
15844;DHT22;50807;52.436;13.346;2023-02-03T00:01:16;7.40;84.20
15844;DHT22;50807;52.436;13.346;2023-02-03T00:01:47;7.40;84.20
15844;DHT22;50807;52.436;13.346;2023-02-03T00:02:18;7.40;84.20
15844;DHT22;50807;52.436;13.346;2023-02-03T00:02:48;7.40;84.30
15844;DHT22;50807;52.436;13.346;2023-02-03T00:03:20;7.40;84.30
15844;DHT22;50807;52.436;13.346;2023-02-03T00:03:51;7.40;84.30
15844;DHT22;50807;52.436;13.346;2023-02-03T00:04:22;7.40;84.40
15844;DHT22;50807;52.436;13.346;2023-02-03T00:04:53;7.40;84.40
15844;DHT22;50807;52.436;13.346;2023-02-03T00:05:24;7.40;84.40
15844;DHT22;50807;52.436;13.346;2023-02-03T00:05:55;7.40;84.40
15844;DHT22;50807;52.436;13.346;2023-02-03T00:06:30;7.40;84.50
15844;DHT22;50807;52.436;13.346;2023-02-03T00:07:01;7.40;84.60
15844;DHT22;50807;52.436;13.346;2023-02-03T00:07:32;7.40;84.80
15844;DHT22;50807;52.436;13.346;2023-02-03T00:08:06;7.40;84.60
15844;DHT22;50807;52.436;13.346;2023-02-03T00:08:38;7.40;84.70
15844;DHT22;50807;52.436;13.346;2023-02-03T00:09:09;7.40;84.60
15844;DHT22;50807;52.436;13.346;2023-02-03T00:09:41;7.40;84.70
15844;DHT22;50807;52.436;13.346;2023-02-03T00:10:12;7.30;84.70
15844;DHT22;50807;52.436;13.346;2023-02-03T00:10:43;7.40;84.80
15844;DHT22;50807;52.436;13.346;2023-02-03T00:11:15;7.40;84.80
15844;DHT22;50807;52.436;13.346;2023-02-03T00:11:46;7.40;84.90
15844;DHT22;50807;52.436;13.346;2023-02-03T00:12:17;7.30;84.90
15844;DHT22;50807;52.436;13.346;2023-02-03T00:12:49;7.30;84.90
15844;DHT22;50807;52.436;13.346;2023-02-03T00:13:22;7.30;85.00
15844;DHT22;50807;52.436;13.346;2023-02-03T00:13:55;7.30;85.00
15844;DHT22;50807;52.436;13.346;2023-02-03T00:14:26;7.30;85.00
15844;DHT22;50807;52.436;13.346;2023-02-03T00:14:57;7.30;85.10
15844;DHT22;50807;52.436;13.346;2023-02-03T00:15:28;7.30;85.20
15844;DHT22;50807;52.436;13.346;2023-02-03T00:15:59;7.30;85.20
15844;DHT22;50807;52.436;13.346;2023-02-03T00:16:31;7.30;85.40
15844;DHT22;50807;52.436;13.346;2023-02-03T00:17:02;7.30;85.40
15844;DHT22;50807;52.436;13.346;2023-02-03T00:17:33;7.30;85.50
15844;DHT22;50807;52.436;13.346;2023-02-03T00:18:05;7.30;85.50
15844;DHT22;50807;52.436;13.346;2023-02-03T00:18:36;7.30;85.70
15844;DHT22;50807;52.436;13.346;2023-02-03T00:19:06;7.30;85.70
15844;DHT22;50807;52.436;13.346;2023-02-03T00:19:37;7.30;85.80
15844;DHT22;50807;52.436;13.346;2023-02-03T00:20:10;7.30;85.90
15844;DHT22;50807;52.436;13.346;2023-02-03T00:20:41;7.20;85.90
15844;DHT22;50807;52.436;13.346;2023-02-03T00:21:12;7.30;86.00
15844;DHT22;50807;52.436;13.346;2023-02-03T00:21:45;7.30;86.00
15844;DHT22;50807;52.436;13.346;2023-02-03T00:22:16;7.30;86.80
15844;DHT22;50807;52.436;13.346;2023-02-03T00:22:47;7.30;86.20
15844;DHT22;50807;52.436;13.346;2023-02-03T00:23:19;7.30;86.30
15844;DHT22;50807;52.436;13.346;2023-02-03T00:23:50;7.30;86.30
15844;DHT22;50807;52.436;13.346;2023-02-03T00:24:20;7.30;86.40
15844;DHT22;50807;52.436;13.346;2023-02-03T00:24:53;7.30;86.50
15844;DHT22;50807;52.436;13.346;2023-02-03T00:25:24;7.30;86.50
15844;DHT22;50807;52.436;13.346;2023-02-03T00:25:55;7.20;86.50
15844;DHT22;50807;52.436;13.346;2023-02-03T00:26:26;7.30;86.60
15844;DHT22;50807;52.436;13.346;2023-02-03T00:26:58;7.30;86.70
15844;DHT22;50807;52.436;13.346;2023-02-03T00:27:30;7.30;86.60
15844;DHT22;50807;52.436;13.346;2023-02-03T00:28:02;7.30;86.80
15844;DHT22;50807;52.436;13.346;2023-02-03T00:28:34;7.30;86.80
15844;DHT22;50807;52.436;13.346;2023-02-03T00:29:05;7.30;86.90
15844;DHT22;50807;52.436;13.346;2023-02-03T00:29:36;7.30;87.10
15844;DHT22;50807;52.436;13.346;2023-02-03T00:30:09;7.20;87.20
15844;DHT22;50807;52.436;13.346;2023-02-03T00:30:40;7.20;87.20
15844;DHT22;50807;52.436;13.346;2023-02-03T00:31:15;7.20;87.30
15844;DHT22;50807;52.436;13.346;2023-02-03T00:31:47;7.20;87.40
15844;DHT22;50807;52.436;13.346;2023-02-03T00:32:18;7.20;87.40
15844;DHT22;50807;52.436;13.346;2023-02-03T00:32:49;7.20;87.50
15844;DHT22;50807;52.436;13.346;2023-02-03T00:33:20;7.20;87.60
15844;DHT22;50807;52.436;13.346;2023-02-03T00:33:55;7.20;87.70
15844;DHT22;50807;52.436;13.346;2023-02-03T00:34:27;7.20;88.00
15844;DHT22;50807;52.436;13.346;2023-02-03T00:35:00;7.20;88.00
15844;DHT22;50807;52.436;13.346;2023-02-03T00:35:31;7.20;88.10
15844;DHT22;50807;52.436;13.346;2023-02-03T00:36:04;7.10;88.10
15844;DHT22;50807;52.436;13.346;2023-02-03T00:36:36;7.10;88.40
15844;DHT22;50807;52.436;13.346;2023-02-03T00:37:08;7.10;88.40
15844;DHT22;50807;52.436;13.346;2023-02-03T00:37:41;7.10;88.60
15844;DHT22;50807;52.436;13.346;2023-02-03T00:38:13;7.10;88.60
15844;DHT22;50807;52.436;13.346;2023-02-03T00:38:44;7.10;88.70
15844;DHT22;50807;52.436;13.346;2023-02-03T00:39:15;7.10;88.90
15844;DHT22;50807;52.436;13.346;2023-02-03T00:39:45;7.10;89.00
15844;DHT22;50807;52.436;13.346;2023-02-03T00:40:17;7.10;89.10
15844;DHT22;50807;52.436;13.346;2023-02-03T00:40:51;7.10;89.20
15844;DHT22;50807;52.436;13.346;2023-02-03T00:41:22;7.10;89.50
15844;DHT22;50807;52.436;13.346;2023-02-03T00:42:00;7.10;89.50
15844;DHT22;50807;52.436;13.346;2023-02-03T00:42:30;7.10;89.60
15844;DHT22;50807;52.436;13.346;2023-02-03T00:43:03;7.10;89.70
15844;DHT22;50807;52.436;13.346;2023-02-03T00:43:35;7.10;89.90
15844;DHT22;50807;52.436;13.346;2023-02-03T00:44:05;7.00;90.00
15844;DHT22;50807;52.436;13.346;2023-02-03T00:44:36;7.00;90.00
15844;DHT22;50807;52.436;13.346;2023-02-03T00:45:08;7.00;90.00
15844;DHT22;50807;52.436;13.346;2023-02-03T00:45:39;7.00;90.10
15844;DHT22;50807;52.436;13.346;2023-02-03T00:46:10;7.00;90.20
15844;DHT22;50807;52.436;13.346;2023-02-03T00:46:42;7.00;90.20
15844;DHT22;50807;52.436;13.346;2023-02-03T00:47:13;7.00;90.30
15844;DHT22;50807;52.436;13.346;2023-02-03T00:47:43;7.00;90.30
15844;DHT22;50807;52.436;13.346;2023-02-03T00:48:15;7.00;90.40
15844;DHT22;50807;52.436;13.346;2023-02-03T00:48:46;7.00;90.40
15844;DHT22;50807;52.436;13.346;2023-02-03T00:49:17;7.00;90.50
15844;DHT22;50807;52.436;13.346;2023-02-03T00:49:49;7.00;90.50
15844;DHT22;50807;52.436;13.346;2023-02-03T00:50:19;7.00;90.60
15844;DHT22;50807;52.436;13.346;2023-02-03T00:50:50;7.00;90.60
15844;DHT22;50807;52.436;13.346;2023-02-03T00:51:22;7.00;90.70
15844;DHT22;50807;52.436;13.346;2023-02-03T00:51:52;7.00;90.70
15844;DHT22;50807;52.436;13.346;2023-02-03T00:52:25;7.00;90.80
15844;DHT22;50807;52.436;13.346;2023-02-03T00:52:56;7.00;90.90
15844;DHT22;50807;52.436;13.346;2023-02-03T00:53:27;7.00;90.90
15844;DHT22;50807;52.436;13.346;2023-02-03T00:53:58;7.00;91.00
15844;DHT22;50807;52.436;13.346;2023-02-03T00:54:29;7.00;91.00
15844;DHT22;50807;52.436;13.346;2023-02-03T00:55:00;7.00;91.00
15844;DHT22;50807;52.436;13.346;2023-02-03T00:55:31;7.00;91.00
15844;DHT22;50807;52.436;13.346;2023-02-03T00:56:03;7.00;91.10
15844;DHT22;50807;52.436;13.346;2023-02-03T00:56:41;7.00;91.20
15844;DHT22;50807;52.436;13.346;2023-02-03T00:57:13;7.00;91.20
15844;DHT22;50807;52.436;13.346;2023-02-03T00:57:44;7.00;91.30
15844;DHT22;50807;52.436;13.346;2023-02-03T00:58:15;7.00;91.30
15844;DHT22;50807;52.436;13.346;2023-02-03T00:58:46;7.00;91.30
15844;DHT22;50807;52.436;13.346;2023-02-03T00:59:17;7.00;91.40
15844;DHT22;50807;52.436;13.346;2023-02-03T00:59:48;7.10;91.40
15844;DHT22;50807;52.436;13.346;2023-02-03T01:00:20;7.00;91.50
15844;DHT22;50807;52.436;13.346;2023-02-03T01:00:52;7.10;91.50
15844;DHT22;50807;52.436;13.346;2023-02-03T01:01:24;7.10;91.60
15844;DHT22;50807;52.436;13.346;2023-02-03T01:01:54;7.10;91.60
15844;DHT22;50807;52.436;13.346;2023-02-03T01:02:26;7.10;91.60
15844;DHT22;50807;52.436;13.346;2023-02-03T01:02:57;7.10;91.60
15844;DHT22;50807;52.436;13.346;2023-02-03T01:03:27;7.10;91.70
15844;DHT22;50807;52.436;13.346;2023-02-03T01:03:59;7.10;91.70
15844;DHT22;50807;52.436;13.346;2023-02-03T01:04:30;7.10;91.80
15844;DHT22;50807;52.436;13.346;2023-02-03T01:05:01;7.10;91.90
15844;DHT22;50807;52.436;13.346;2023-02-03T01:05:33;7.10;91.90
15844;DHT22;50807;52.436;13.346;2023-02-03T01:06:11;7.10;92.00
15844;DHT22;50807;52.436;13.346;2023-02-03T01:06:43;7.10;92.20
15844;DHT22;50807;52.436;13.346;2023-02-03T01:07:15;7.10;92.10
15844;DHT22;50807;52.436;13.346;2023-02-03T01:07:47;7.00;92.20
15844;DHT22;50807;52.436;13.346;2023-02-03T01:08:18;7.10;92.30
15844;DHT22;50807;52.436;13.346;2023-02-03T01:08:51;7.10;92.30
15844;DHT22;50807;52.436;13.346;2023-02-03T01:09:22;7.10;92.40
15844;DHT22;50807;52.436;13.346;2023-02-03T01:09:52;7.10;92.40
15844;DHT22;50807;52.436;13.346;2023-02-03T01:10:24;7.10;92.40
15844;DHT22;50807;52.436;13.346;2023-02-03T01:10:55;7.10;92.50
15844;DHT22;50807;52.436;13.346;2023-02-03T01:11:27;7.10;92.50
15844;DHT22;50807;52.436;13.346;2023-02-03T01:11:58;7.10;92.60
15844;DHT22;50807;52.436;13.346;2023-02-03T01:12:30;7.10;92.60
15844;DHT22;50807;52.436;13.346;2023-02-03T01:13:01;7.10;92.60
15844;DHT22;50807;52.436;13.346;2023-02-03T01:13:32;7.10;92.60
15844;DHT22;50807;52.436;13.346;2023-02-03T01:14:03;7.20;92.60
15844;DHT22;50807;52.436;13.346;2023-02-03T01:14:34;7.20;92.70
15844;DHT22;50807;52.436;13.346;2023-02-03T01:15:05;7.20;93.10
15844;DHT22;50807;52.436;13.346;2023-02-03T01:15:44;7.10;92.80
15844;DHT22;50807;52.436;13.346;2023-02-03T01:16:18;7.20;93.10
15844;DHT22;50807;52.436;13.346;2023-02-03T01:16:49;7.10;93.10
15844;DHT22;50807;52.436;13.346;2023-02-03T01:17:21;7.20;93.10
15844;DHT22;50807;52.436;13.346;2023-02-03T01:17:52;7.20;93.30
15844;DHT22;50807;52.436;13.346;2023-02-03T01:18:22;7.10;93.30
15844;DHT22;50807;52.436;13.346;2023-02-03T01:18:54;7.20;93.50
15844;DHT22;50807;52.436;13.346;2023-02-03T01:19:26;7.20;93.70
15844;DHT22;50807;52.436;13.346;2023-02-03T01:19:57;7.20;93.80
15844;DHT22;50807;52.436;13.346;2023-02-03T01:20:27;7.20;93.90
15844;DHT22;50807;52.436;13.346;2023-02-03T01:21:04;7.20;94.00
15844;DHT22;50807;52.436;13.346;2023-02-03T01:21:35;7.20;94.20
15844;DHT22;50807;52.436;13.346;2023-02-03T01:22:06;7.20;94.30
15844;DHT22;50807;52.436;13.346;2023-02-03T01:22:38;7.20;94.40
15844;DHT22;50807;52.436;13.346;2023-02-03T01:23:10;7.20;94.90
15844;DHT22;50807;52.436;13.346;2023-02-03T01:23:42;7.20;95.30
15844;DHT22;50807;52.436;13.346;2023-02-03T01:24:14;7.10;95.90
15844;DHT22;50807;52.436;13.346;2023-02-03T01:24:44;7.10;96.40
15844;DHT22;50807;52.436;13.346;2023-02-03T01:25:15;7.10;96.90
15844;DHT22;50807;52.436;13.346;2023-02-03T01:25:47;7.10;97.30
15844;DHT22;50807;52.436;13.346;2023-02-03T01:26:20;7.10;97.70
15844;DHT22;50807;52.436;13.346;2023-02-03T01:26:51;7.10;97.90
15844;DHT22;50807;52.436;13.346;2023-02-03T01:27:23;7.10;98.20
15844;DHT22;50807;52.436;13.346;2023-02-03T01:27:54;7.10;98.40
15844;DHT22;50807;52.436;13.346;2023-02-03T01:28:25;7.10;98.60
15844;DHT22;50807;52.436;13.346;2023-02-03T01:28:58;7.10;98.90
15844;DHT22;50807;52.436;13.346;2023-02-03T01:29:29;7.10;99.20
15844;DHT22;50807;52.436;13.346;2023-02-03T01:30:00;7.10;99.40
15844;DHT22;50807;52.436;13.346;2023-02-03T01:30:32;7.10;99.50
15844;DHT22;50807;52.436;13.346;2023-02-03T01:31:10;7.10;99.80
15844;DHT22;50807;52.436;13.346;2023-02-03T01:31:42;7.10;99.90
15844;DHT22;50807;52.436;13.346;2023-02-03T01:32:14;7.10;99.90
15844;DHT22;50807;52.436;13.346;2023-02-03T01:32:45;7.00;99.90
15844;DHT22;50807;52.436;13.346;2023-02-03T01:33:15;7.00;99.90
15844;DHT22;50807;52.436;13.346;2023-02-03T01:33:46;7.10;99.90
15844;DHT22;50807;52.436;13.346;2023-02-03T01:34:18;7.00;99.90
15844;DHT22;50807;52.436;13.346;2023-02-03T01:34:49;7.00;99.90
15844;DHT22;50807;52.436;13.346;2023-02-03T01:35:20;7.00;99.90
15844;DHT22;50807;52.436;13.346;2023-02-03T01:35:52;7.00;99.90
15844;DHT22;50807;52.436;13.346;2023-02-03T01:36:24;7.00;99.90
15844;DHT22;50807;52.436;13.346;2023-02-03T01:36:55;7.00;99.90
15844;DHT22;50807;52.436;13.346;2023-02-03T01:37:27;7.00;99.90
15844;DHT22;50807;52.436;13.346;2023-02-03T01:37:58;7.00;99.90
15844;DHT22;50807;52.436;13.346;2023-02-03T01:38:30;7.00;99.90
15844;DHT22;50807;52.436;13.346;2023-02-03T01:39:03;7.00;99.90
15844;DHT22;50807;52.436;13.346;2023-02-03T01:39:34;7.00;99.90
15844;DHT22;50807;52.436;13.346;2023-02-03T01:40:06;7.00;99.90
15844;DHT22;50807;52.436;13.346;2023-02-03T01:40:42;7.00;99.90
15844;DHT22;50807;52.436;13.346;2023-02-03T01:41:15;7.00;99.90
15844;DHT22;50807;52.436;13.346;2023-02-03T01:41:48;7.00;99.90
15844;DHT22;50807;52.436;13.346;2023-02-03T01:42:19;7.00;99.90
15844;DHT22;50807;52.436;13.346;2023-02-03T01:42:50;7.00;99.90
15844;DHT22;50807;52.436;13.346;2023-02-03T01:43:31;7.00;99.90
15844;DHT22;50807;52.436;13.346;2023-02-03T01:44:37;7.00;99.90
15844;DHT22;50807;52.436;13.346;2023-02-03T01:45:10;7.00;99.90
15844;DHT22;50807;52.436;13.346;2023-02-03T01:45:42;7.00;99.90
15844;DHT22;50807;52.436;13.346;2023-02-03T01:46:23;7.00;99.90
15844;DHT22;50807;52.436;13.346;2023-02-03T01:46:57;7.00;99.90
15844;DHT22;50807;52.436;13.346;2023-02-03T01:47:32;7.00;99.90
15844;DHT22;50807;52.436;13.346;2023-02-03T01:48:07;7.00;99.90
15844;DHT22;50807;52.436;13.346;2023-02-03T01:48:39;7.00;99.90
15844;DHT22;50807;52.436;13.346;2023-02-03T01:49:14;7.00;99.90
15844;DHT22;50807;52.436;13.346;2023-02-03T01:49:57;7.00;99.90
15844;DHT22;50807;52.436;13.346;2023-02-03T01:50:34;7.00;99.90
15844;DHT22;50807;52.436;13.346;2023-02-03T01:51:06;7.00;99.90
15844;DHT22;50807;52.436;13.346;2023-02-03T01:51:39;7.00;99.90
15844;DHT22;50807;52.436;13.346;2023-02-03T01:52:12;7.00;99.90
15844;DHT22;50807;52.436;13.346;2023-02-03T01:52:47;7.00;99.90
15844;DHT22;50807;52.436;13.346;2023-02-03T01:53:22;7.00;99.90
15844;DHT22;50807;52.436;13.346;2023-02-03T01:53:55;7.00;99.90
15844;DHT22;50807;52.436;13.346;2023-02-03T01:54:30;7.00;99.90
15844;DHT22;50807;52.436;13.346;2023-02-03T01:55:07;7.00;99.90
15844;DHT22;50807;52.436;13.346;2023-02-03T01:55:44;7.00;99.90
15844;DHT22;50807;52.436;13.346;2023-02-03T01:56:17;7.00;99.90
15844;DHT22;50807;52.436;13.346;2023-02-03T01:56:52;7.00;99.90
15844;DHT22;50807;52.436;13.346;2023-02-03T01:57:30;7.00;99.90
15844;DHT22;50807;52.436;13.346;2023-02-03T01:58:06;7.00;99.90
15844;DHT22;50807;52.436;13.346;2023-02-03T01:58:41;7.00;99.90
15844;DHT22;50807;52.436;13.346;2023-02-03T01:59:15;7.00;99.90
15844;DHT22;50807;52.436;13.346;2023-02-03T01:59:49;7.00;99.90
15844;DHT22;50807;52.436;13.346;2023-02-03T02:00:23;7.00;99.90
15844;DHT22;50807;52.436;13.346;2023-02-03T02:00:54;7.00;99.90
15844;DHT22;50807;52.436;13.346;2023-02-03T02:01:29;7.00;99.90
15844;DHT22;50807;52.436;13.346;2023-02-03T02:02:02;7.00;99.90
15844;DHT22;50807;52.436;13.346;2023-02-03T02:02:35;7.00;99.90
15844;DHT22;50807;52.436;13.346;2023-02-03T02:03:08;7.00;99.90
15844;DHT22;50807;52.436;13.346;2023-02-03T02:03:41;7.00;99.90
15844;DHT22;50807;52.436;13.346;2023-02-03T02:04:16;7.00;99.90
15844;DHT22;50807;52.436;13.346;2023-02-03T02:04:53;7.00;99.90
15844;DHT22;50807;52.436;13.346;2023-02-03T02:05:31;7.00;99.90
15844;DHT22;50807;52.436;13.346;2023-02-03T02:06:06;7.00;99.90
15844;DHT22;50807;52.436;13.346;2023-02-03T02:06:39;7.00;99.90
15844;DHT22;50807;52.436;13.346;2023-02-03T02:07:10;7.00;99.90
15844;DHT22;50807;52.436;13.346;2023-02-03T02:07:41;7.00;99.90
15844;DHT22;50807;52.436;13.346;2023-02-03T02:08:15;7.00;99.90
15844;DHT22;50807;52.436;13.346;2023-02-03T02:08:50;7.00;99.90
15844;DHT22;50807;52.436;13.346;2023-02-03T02:09:25;7.00;99.90
15844;DHT22;50807;52.436;13.346;2023-02-03T02:09:58;6.90;99.90
15844;DHT22;50807;52.436;13.346;2023-02-03T02:10:30;6.90;99.90
15844;DHT22;50807;52.436;13.346;2023-02-03T02:11:04;7.00;99.90
15844;DHT22;50807;52.436;13.346;2023-02-03T02:11:36;7.00;99.90
15844;DHT22;50807;52.436;13.346;2023-02-03T02:12:08;7.00;99.90
15844;DHT22;50807;52.436;13.346;2023-02-03T02:12:41;7.00;99.90
15844;DHT22;50807;52.436;13.346;2023-02-03T02:13:13;7.00;99.90
15844;DHT22;50807;52.436;13.346;2023-02-03T02:13:47;7.00;99.90
15844;DHT22;50807;52.436;13.346;2023-02-03T02:14:21;7.00;99.90
15844;DHT22;50807;52.436;13.346;2023-02-03T02:14:52;7.00;99.90
15844;DHT22;50807;52.436;13.346;2023-02-03T02:15:27;7.00;99.90
15844;DHT22;50807;52.436;13.346;2023-02-03T02:16:09;7.00;99.90
15844;DHT22;50807;52.436;13.346;2023-02-03T02:16:51;7.00;99.90
15844;DHT22;50807;52.436;13.346;2023-02-03T02:17:58;7.00;99.90
15844;DHT22;50807;52.436;13.346;2023-02-03T02:18:53;7.00;99.90
15844;DHT22;50807;52.436;13.346;2023-02-03T02:19:57;7.00;99.90
15844;DHT22;50807;52.436;13.346;2023-02-03T02:21:13;7.10;99.90
15844;DHT22;50807;52.436;13.346;2023-02-03T02:22:08;7.10;99.90
15844;DHT22;50807;52.436;13.346;2023-02-03T02:23:07;7.10;99.90
15844;DHT22;50807;52.436;13.346;2023-02-03T02:24:36;7.10;99.90
15844;DHT22;50807;52.436;13.346;2023-02-03T02:25:39;7.10;99.90
15844;DHT22;50807;52.436;13.346;2023-02-03T02:26:41;7.10;99.90
15844;DHT22;50807;52.436;13.346;2023-02-03T02:27:55;7.20;99.90
15844;DHT22;50807;52.436;13.346;2023-02-03T02:28:58;7.10;99.90
15844;DHT22;50807;52.436;13.346;2023-02-03T02:30:07;7.10;99.90
15844;DHT22;50807;52.436;13.346;2023-02-03T02:31:11;7.20;99.90
15844;DHT22;50807;52.436;13.346;2023-02-03T02:32:13;7.20;99.90
15844;DHT22;50807;52.436;13.346;2023-02-03T02:33:04;7.10;99.90
15844;DHT22;50807;52.436;13.346;2023-02-03T02:33:52;7.10;99.90
15844;DHT22;50807;52.436;13.346;2023-02-03T02:34:36;7.10;99.90
15844;DHT22;50807;52.436;13.346;2023-02-03T02:35:23;7.10;99.90
15844;DHT22;50807;52.436;13.346;2023-02-03T02:36:13;7.10;99.90
15844;DHT22;50807;52.436;13.346;2023-02-03T02:37:02;7.10;99.90
15844;DHT22;50807;52.436;13.346;2023-02-03T02:37:46;7.00;99.90
15844;DHT22;50807;52.436;13.346;2023-02-03T02:38:32;7.00;99.90
15844;DHT22;50807;52.436;13.346;2023-02-03T02:39:14;7.00;99.90
15844;DHT22;50807;52.436;13.346;2023-02-03T02:39:56;7.00;99.90
15844;DHT22;50807;52.436;13.346;2023-02-03T02:40:35;7.00;99.90
15844;DHT22;50807;52.436;13.346;2023-02-03T02:41:18;7.00;99.90
15844;DHT22;50807;52.436;13.346;2023-02-03T02:41:55;6.90;99.90
15844;DHT22;50807;52.436;13.346;2023-02-03T02:42:34;6.90;99.90
15844;DHT22;50807;52.436;13.346;2023-02-03T02:43:16;6.90;99.90
15844;DHT22;50807;52.436;13.346;2023-02-03T02:43:57;6.90;99.90
15844;DHT22;50807;52.436;13.346;2023-02-03T02:44:38;6.90;99.90
15844;DHT22;50807;52.436;13.346;2023-02-03T02:45:18;6.90;99.90
15844;DHT22;50807;52.436;13.346;2023-02-03T02:45:56;6.90;99.90
15844;DHT22;50807;52.436;13.346;2023-02-03T02:46:37;6.80;99.90
15844;DHT22;50807;52.436;13.346;2023-02-03T02:47:16;6.80;99.90
15844;DHT22;50807;52.436;13.346;2023-02-03T02:47:49;6.80;99.90
15844;DHT22;50807;52.436;13.346;2023-02-03T02:48:30;6.80;99.90
15844;DHT22;50807;52.436;13.346;2023-02-03T02:49:08;6.80;99.90
15844;DHT22;50807;52.436;13.346;2023-02-03T02:49:46;6.80;99.90
15844;DHT22;50807;52.436;13.346;2023-02-03T02:50:25;6.80;99.90
15844;DHT22;50807;52.436;13.346;2023-02-03T02:51:02;6.80;99.90
15844;DHT22;50807;52.436;13.346;2023-02-03T02:51:36;6.80;99.90
15844;DHT22;50807;52.436;13.346;2023-02-03T02:52:10;6.80;99.90
15844;DHT22;50807;52.436;13.346;2023-02-03T02:52:45;6.70;99.90
15844;DHT22;50807;52.436;13.346;2023-02-03T02:53:21;6.70;99.90
15844;DHT22;50807;52.436;13.346;2023-02-03T02:53:58;6.70;99.90
15844;DHT22;50807;52.436;13.346;2023-02-03T02:54:32;6.70;99.90
15844;DHT22;50807;52.436;13.346;2023-02-03T02:55:10;6.70;99.90
15844;DHT22;50807;52.436;13.346;2023-02-03T02:55:45;6.70;99.90
15844;DHT22;50807;52.436;13.346;2023-02-03T02:56:18;6.70;99.90
15844;DHT22;50807;52.436;13.346;2023-02-03T02:56:52;6.60;99.90
15844;DHT22;50807;52.436;13.346;2023-02-03T02:57:28;6.60;99.90
15844;DHT22;50807;52.436;13.346;2023-02-03T02:58:04;6.60;99.90
15844;DHT22;50807;52.436;13.346;2023-02-03T02:58:40;6.60;99.90
15844;DHT22;50807;52.436;13.346;2023-02-03T02:59:14;6.60;99.90
15844;DHT22;50807;52.436;13.346;2023-02-03T02:59:45;6.60;99.90
15844;DHT22;50807;52.436;13.346;2023-02-03T03:00:18;6.60;99.90
15844;DHT22;50807;52.436;13.346;2023-02-03T03:00:50;6.60;99.90
15844;DHT22;50807;52.436;13.346;2023-02-03T03:01:21;6.60;99.90
15844;DHT22;50807;52.436;13.346;2023-02-03T03:01:54;6.60;99.90
15844;DHT22;50807;52.436;13.346;2023-02-03T03:02:31;6.60;99.90
15844;DHT22;50807;52.436;13.346;2023-02-03T03:03:11;6.60;99.90
15844;DHT22;50807;52.436;13.346;2023-02-03T03:03:44;6.60;99.90
15844;DHT22;50807;52.436;13.346;2023-02-03T03:04:22;6.60;99.90
15844;DHT22;50807;52.436;13.346;2023-02-03T03:04:55;6.60;99.90
15844;DHT22;50807;52.436;13.346;2023-02-03T03:05:27;6.50;99.90
15844;DHT22;50807;52.436;13.346;2023-02-03T03:06:02;6.50;99.90
15844;DHT22;50807;52.436;13.346;2023-02-03T03:06:39;6.50;99.90
15844;DHT22;50807;52.436;13.346;2023-02-03T03:07:16;6.50;99.90
15844;DHT22;50807;52.436;13.346;2023-02-03T03:07:55;6.50;99.90
15844;DHT22;50807;52.436;13.346;2023-02-03T03:08:35;6.50;99.90
15844;DHT22;50807;52.436;13.346;2023-02-03T03:09:13;6.50;99.90
15844;DHT22;50807;52.436;13.346;2023-02-03T03:09:51;6.50;99.90
15844;DHT22;50807;52.436;13.346;2023-02-03T03:10:28;6.50;99.90
15844;DHT22;50807;52.436;13.346;2023-02-03T03:11:03;6.50;99.90
15844;DHT22;50807;52.436;13.346;2023-02-03T03:11:39;6.50;99.90
15844;DHT22;50807;52.436;13.346;2023-02-03T03:12:16;6.50;99.90
15844;DHT22;50807;52.436;13.346;2023-02-03T03:12:52;6.50;99.90
15844;DHT22;50807;52.436;13.346;2023-02-03T03:13:29;6.50;99.90
15844;DHT22;50807;52.436;13.346;2023-02-03T03:14:05;6.50;99.90
15844;DHT22;50807;52.436;13.346;2023-02-03T03:14:40;6.50;99.90
15844;DHT22;50807;52.436;13.346;2023-02-03T03:15:19;6.50;99.90
15844;DHT22;50807;52.436;13.346;2023-02-03T03:15:55;6.50;99.90
15844;DHT22;50807;52.436;13.346;2023-02-03T03:16:30;6.60;99.90
15844;DHT22;50807;52.436;13.346;2023-02-03T03:17:07;6.50;99.90
15844;DHT22;50807;52.436;13.346;2023-02-03T03:17:48;6.50;99.90
15844;DHT22;50807;52.436;13.346;2023-02-03T03:18:27;6.50;99.90
15844;DHT22;50807;52.436;13.346;2023-02-03T03:19:04;6.50;99.90
15844;DHT22;50807;52.436;13.346;2023-02-03T03:19:43;6.50;99.90
15844;DHT22;50807;52.436;13.346;2023-02-03T03:20:20;6.50;99.90
15844;DHT22;50807;52.436;13.346;2023-02-03T03:20:56;6.50;99.90
15844;DHT22;50807;52.436;13.346;2023-02-03T03:21:38;6.60;99.90
15844;DHT22;50807;52.436;13.346;2023-02-03T03:22:15;6.60;99.90
15844;DHT22;50807;52.436;13.346;2023-02-03T03:22:52;6.60;99.90
15844;DHT22;50807;52.436;13.346;2023-02-03T03:23:29;6.60;99.90
15844;DHT22;50807;52.436;13.346;2023-02-03T03:24:07;6.60;99.90
15844;DHT22;50807;52.436;13.346;2023-02-03T03:24:46;6.60;99.90
15844;DHT22;50807;52.436;13.346;2023-02-03T03:25:24;6.60;99.90
15844;DHT22;50807;52.436;13.346;2023-02-03T03:26:07;6.60;99.90
15844;DHT22;50807;52.436;13.346;2023-02-03T03:26:46;6.60;99.90
15844;DHT22;50807;52.436;13.346;2023-02-03T03:27:22;6.60;99.90
15844;DHT22;50807;52.436;13.346;2023-02-03T03:27:58;6.60;99.90
15844;DHT22;50807;52.436;13.346;2023-02-03T03:28:46;6.60;99.90
15844;DHT22;50807;52.436;13.346;2023-02-03T03:29:21;6.60;99.90
15844;DHT22;50807;52.436;13.346;2023-02-03T03:29:58;6.60;99.90
15844;DHT22;50807;52.436;13.346;2023-02-03T03:30:34;6.60;99.90
15844;DHT22;50807;52.436;13.346;2023-02-03T03:31:06;6.60;99.90
15844;DHT22;50807;52.436;13.346;2023-02-03T03:31:39;6.60;99.90
15844;DHT22;50807;52.436;13.346;2023-02-03T03:32:11;6.60;99.90
15844;DHT22;50807;52.436;13.346;2023-02-03T03:32:43;6.60;99.90
15844;DHT22;50807;52.436;13.346;2023-02-03T03:33:15;6.60;99.90
15844;DHT22;50807;52.436;13.346;2023-02-03T03:33:46;6.60;99.90
15844;DHT22;50807;52.436;13.346;2023-02-03T03:34:18;6.60;99.90
15844;DHT22;50807;52.436;13.346;2023-02-03T03:34:51;6.60;99.90
15844;DHT22;50807;52.436;13.346;2023-02-03T03:35:22;6.60;99.90
15844;DHT22;50807;52.436;13.346;2023-02-03T03:36:02;6.60;99.90
15844;DHT22;50807;52.436;13.346;2023-02-03T03:36:43;6.60;99.90
15844;DHT22;50807;52.436;13.346;2023-02-03T03:37:19;6.60;99.90
15844;DHT22;50807;52.436;13.346;2023-02-03T03:37:57;6.60;99.90
15844;DHT22;50807;52.436;13.346;2023-02-03T03:38:38;6.60;99.90
15844;DHT22;50807;52.436;13.346;2023-02-03T03:39:15;6.60;99.90
15844;DHT22;50807;52.436;13.346;2023-02-03T03:39:55;6.70;99.90
15844;DHT22;50807;52.436;13.346;2023-02-03T03:40:32;6.70;99.90
15844;DHT22;50807;52.436;13.346;2023-02-03T03:41:12;6.70;99.90
15844;DHT22;50807;52.436;13.346;2023-02-03T03:41:56;6.70;99.90
15844;DHT22;50807;52.436;13.346;2023-02-03T03:42:34;6.70;99.90